< Typhoon 197515 1975 Season Typhoon 197517 >
Typhoon 197516 (FLOSSIE)
General InformationTrack Information on Google Maps || Disaster Info.ResourceGoogle EarthGE AnimationAtom FeedGeoJSON
Detalied Best Track (Time Zone = UTC)
Year Month Day Hour Lat. Long. Pressure (hPa) Wind (kt) Class Image Chart
1975 10 17 12 14.0 126.0 1004 0 2 -- Chart
1975 10 17 18 14.4 125.0 1004 0 2 -- Chart
1975 10 18 00 14.8 124.0 1004 0 2 -- Chart
1975 10 18 06 15.3 122.5 1002 0 2 -- Chart
1975 10 18 12 15.7 120.9 1002 0 2 -- Chart
1975 10 18 18 15.8 120.3 1002 0 2 -- Chart
1975 10 19 00 16.0 119.8 1002 0 2 -- Chart
1975 10 19 06 16.2 119.3 998 0 2 -- Chart
1975 10 19 12 16.2 118.7 998 0 2 -- Chart
1975 10 19 18 16.3 118.2 998 0 2 -- Chart
1975 10 20 00 16.2 117.4 998 0 2 -- Chart
1975 10 20 06 15.8 116.4 998 0 2 -- Chart
1975 10 20 12 15.7 115.7 994 0 2 -- Chart
1975 10 20 18 15.4 115.7 990 0 9 -- Chart
1975 10 21 00 15.9 116.1 990 0 9 -- Chart
1975 10 21 06 16.4 116.5 985 0 9 -- Chart
1975 10 21 12 17.2 116.6 985 0 9 -- Chart
1975 10 21 18 17.8 115.8 980 0 9 -- Chart
1975 10 22 00 18.4 114.8 975 0 9 -- Chart
1975 10 22 06 18.9 114.3 975 0 9 -- Chart
1975 10 22 12 19.6 113.6 970 0 9 -- Chart
1975 10 22 18 20.3 113.0 970 0 9 -- Chart
1975 10 23 00 21.0 111.9 980 0 9 -- Chart
1975 10 23 06 21.4 111.1 985 0 9 -- Chart
1975 10 23 12 21.7 110.0 1000 0 2 -- Chart
1975 10 23 18 22.0 109.0 1004 0 2 -- Chart
Japan Meteorological Agency Best Track Data | Correction Date : 1989-06-01
< Typhoon 197515 1975 Season Typhoon 197517 >

Help